Aeroporto :
LOGIN :

Iscrizione | Disclaimer

   EN    FR    IT 

 










Sommario :    VFR   VFR Marginale   IFR   IFR Intensivo   IFR Molto Intensivo
Visibilità : 
Base nubi : 
>= 8 km
>= 3000ft
5 / 8 km
1000 / 3000 ft
1500m / 5 km
500 / 1000 ft
800 / 1500m
200 / 500 ft
< 800m
< 200 ft
Simboli :   Temporali  Nebbia  Neve Forte  Precipitazioni Forti  Vento > 20 kt
SIGMETs :   Varie  Temporali  Ghiacco  Turbolenza  Onda orograficha  Ceneri Vulcaniche







- Altitudine del aeroporto : 171 ft
- Codice IATA : EGC
- Carte del aeroporto


LFBE - Bergerac

ULTIMO METAR :
  • 190700Z AUTO 23003KT 180V290 9999 FEW010 20/16 Q1012 TEMPO BKN009

METARs OBSOLETI :
  • 190630Z AUTO 24004KT 9999 SCT009 18/15 Q1012 NOSIG
  • 190600Z AUTO 27007KT 9999 SCT009 BKN100 18/15 Q1012 NOSIG
  • 190530Z AUTO VRB02KT CAVOK 17/15 Q1012 NOSIG
  • 190500Z AUTO 25003KT 210V270 CAVOK 16/14 Q1012 NOSIG
  • 190430Z AUTO 26003KT CAVOK 16/14 Q1012 NOSIG

TAF AMD TAF LFBE
Valido dal 19 a 06 ore il 20 a 06 ore UTC


190645Z 1906/2006 27007KT CAVOK
TEMPO 1906/1908 BKN009
TEMPO 1911/1916 BKN040
BECMG 2000/2003 BKN015
Nessun NOTAM noto per questo aeroporto.



MetMap, La meteo Aeronautica in un colpo d'occhio ! - Copyright ORBIFLY Dicembre 2007 - Disclaimer

ORBIFLY MET'MAP TEAM :

Programmazione e sviluppo : Alexandra Zaïnal
Concezione e sviluppo : Baudouin d'Aumeries
Co-Programmazione e sviluppo : Marc-Olivier Méhu
Supporto tecnico e logistico : Manuel Goepfert
Aiuto per la traduzione : Arnaldo La Scala

Contatto : metmap@orbifly.com




FONTI E CREDITI :

   NOAA